Melville Hall, Dominica

9:47 PM AST on August 30, 2015 (GMT -0400)
Melville Hall | | Change Station
CLOSE
Current Station
Airport
Location: Melville Hall,
Elevation: 46 ft
Nearby Weather Stations

Elev 46 ft 15.55 °N, 61.30 °W | Updated 3 days ago

Clear
Clear
81 °F
Feels Like 85 °F
N
4
Wind Variable Wind from East
Gusts mph

Today
High -- | Low -- °F
--% Chance of Precip.
Yesterday
High -- | Low -- °F
Precip. -- in
5:52 AM 6:19 PM
Full, 97% visible
Pressure 29.83 in
Visibility 0.6 miles
Clouds Mostly Cloudy 900 ft
Heat Index 85 °F
Dew Point 71 °F
Humidity 72%
Rainfall 0.00 in
Snow Depth Not available.
UV 1 out of 12
Pollen Not available.
Air Quality Not available.
Flu Activity Not available.
METAR TDPD 271100Z 14006KT 1000 +TSRA BKN009 BKN///CB 24/24 Q1010
Pressure 29.83 in
Visibility 0.6 miles
Clouds Mostly Cloudy 900 ft
Heat Index 85 °F
Dew Point 71 °F
Humidity 72%
Rainfall 0.00 in
Snow Depth Not available.
UV 1 out of 12
Pollen Not available.
Air Quality Not available.
Flu Activity Not available.
METAR TDPD 271100Z 14006KT 1000 +TSRA BKN009 BKN///CB 24/24 Q1010

10-Day Weather Forecast

×

Almanac

Astronomy

Aug. 30, 2015 Rise Set
Actual Time
Civil Twilight
Nautical Twilight
Astronomical Twilight
Moon
Length of Visible Light
Length of Day
Tomorrow will be .
, % of the Moon is Illuminated

Today's Extremes

Country Highs Country Lows

Community

WunderPhotos

Upload Photos

1,851,145 photos uploaded!

WunderBlogs® & News

Nearby

Air Quality

  Air Quality AQ Index Pollutant
Not available.

Snow Depth

Station Depth Elevation

Earthquake Activity

City Distance Mag. Time & Date
Minimum magnitude displayed is 2.5.

Coastal Water Temperatures

Place Temperature

Stations

Nearby Weather Stations

Station Location Temp. Windchill Dew Point Humidity Wind Precip. Elev Updated Type